sensor_id;sensor_type;location;lat;lon;timestamp;pressure;altitude;pressure_sealevel;temperature;humidity
72124;BME280;63818;37.134;-8.548;2022-10-13T00:04:02;101758.2;;;22.6;61.1
72124;BME280;63818;37.134;-8.548;2022-10-13T00:08:47;101753.8;;;22.6;61.1
72124;BME280;63818;37.134;-8.548;2022-10-13T00:13:33;101753.6;;;22.5;61.6
72124;BME280;63818;37.134;-8.548;2022-10-13T00:18:19;101753.2;;;22.5;61.7
72124;BME280;63818;37.134;-8.548;2022-10-13T00:23:05;101752.7;;;22.5;62.3
72124;BME280;63818;37.134;-8.548;2022-10-13T00:27:54;101752.3;;;22.4;62.3
72124;BME280;63818;37.134;-8.548;2022-10-13T00:32:41;101764.2;;;22.3;62.8
72124;BME280;63818;37.134;-8.548;2022-10-13T00:37:29;101767.8;;;22.4;63.0
72124;BME280;63818;37.134;-8.548;2022-10-13T00:42:16;101759.2;;;22.4;62.6
72124;BME280;63818;37.134;-8.548;2022-10-13T00:47:02;101763.0;;;22.3;63.8
72124;BME280;63818;37.134;-8.548;2022-10-13T00:51:49;101767.7;;;22.3;63.1
72124;BME280;63818;37.134;-8.548;2022-10-13T00:56:35;101764.2;;;22.3;63.3
72124;BME280;63818;37.134;-8.548;2022-10-13T01:01:22;101760.7;;;22.3;63.0
72124;BME280;63818;37.134;-8.548;2022-10-13T01:06:11;101753.2;;;22.3;63.4
72124;BME280;63818;37.134;-8.548;2022-10-13T01:11:05;101753.2;;;22.3;63.2
72124;BME280;63818;37.134;-8.548;2022-10-13T01:16:00;101757.5;;;22.3;63.4
72124;BME280;63818;37.134;-8.548;2022-10-13T01:20:54;101757.9;;;22.3;63.2
72124;BME280;63818;37.134;-8.548;2022-10-13T01:26:12;101754.3;;;22.3;63.2
72124;BME280;63818;37.134;-8.548;2022-10-13T01:31:04;101738.2;;;22.2;63.2
72124;BME280;63818;37.134;-8.548;2022-10-13T01:36:00;101745.0;;;22.1;63.6
72124;BME280;63818;37.134;-8.548;2022-10-13T01:40:54;101736.0;;;22.1;63.5
72124;BME280;63818;37.134;-8.548;2022-10-13T01:45:48;101738.2;;;22.1;63.8
72124;BME280;63818;37.134;-8.548;2022-10-13T01:50:35;101743.4;;;22.1;63.6
72124;BME280;63818;37.134;-8.548;2022-10-13T01:55:25;101748.1;;;21.9;64.8
72124;BME280;63818;37.134;-8.548;2022-10-13T02:00:13;101759.9;;;22.0;65.0
72124;BME280;63818;37.134;-8.548;2022-10-13T02:05:20;101761.4;;;21.9;65.2
72124;BME280;63818;37.134;-8.548;2022-10-13T02:10:14;101765.8;;;22.0;65.2
72124;BME280;63818;37.134;-8.548;2022-10-13T02:15:03;101770.4;;;21.8;65.9
72124;BME280;63818;37.134;-8.548;2022-10-13T02:19:51;101776.8;;;21.8;65.5
72124;BME280;63818;37.134;-8.548;2022-10-13T02:24:40;101761.6;;;21.6;65.7
72124;BME280;63818;37.134;-8.548;2022-10-13T02:29:26;101768.9;;;21.8;65.8
72124;BME280;63818;37.134;-8.548;2022-10-13T02:34:20;101771.7;;;21.8;65.4
72124;BME280;63818;37.134;-8.548;2022-10-13T02:39:08;101767.9;;;21.7;65.9
72124;BME280;63818;37.134;-8.548;2022-10-13T02:43:54;101772.7;;;21.6;66.2
72124;BME280;63818;37.134;-8.548;2022-10-13T02:48:45;101773.2;;;21.5;66.4
72124;BME280;63818;37.134;-8.548;2022-10-13T02:53:31;101776.3;;;21.4;66.6
72124;BME280;63818;37.134;-8.548;2022-10-13T02:58:20;101761.9;;;21.4;66.9
72124;BME280;63818;37.134;-8.548;2022-10-13T03:03:06;101759.9;;;21.6;66.7
72124;BME280;63818;37.134;-8.548;2022-10-13T03:07:52;101766.7;;;21.5;66.8
72124;BME280;63818;37.134;-8.548;2022-10-13T03:12:42;101769.2;;;21.6;66.5
72124;BME280;63818;37.134;-8.548;2022-10-13T03:17:28;101765.1;;;21.6;66.4
72124;BME280;63818;37.134;-8.548;2022-10-13T03:22:17;101775.3;;;21.5;66.4
72124;BME280;63818;37.134;-8.548;2022-10-13T03:27:04;101789.4;;;21.4;67.3
72124;BME280;63818;37.134;-8.548;2022-10-13T03:31:50;101781.2;;;21.2;67.5
72124;BME280;63818;37.134;-8.548;2022-10-13T03:36:38;101785.4;;;21.0;68.7
72124;BME280;63818;37.134;-8.548;2022-10-13T03:41:24;101789.9;;;21.2;68.2
72124;BME280;63818;37.134;-8.548;2022-10-13T03:46:16;101792.1;;;21.0;68.2
72124;BME280;63818;37.134;-8.548;2022-10-13T03:51:05;101795.5;;;21.0;68.4
72124;BME280;63818;37.134;-8.548;2022-10-13T03:55:52;101799.9;;;21.0;68.1
72124;BME280;63818;37.134;-8.548;2022-10-13T04:00:38;101806.0;;;21.1;67.4
72124;BME280;63818;37.134;-8.548;2022-10-13T04:05:24;101827.6;;;21.3;66.9
72124;BME280;63818;37.134;-8.548;2022-10-13T04:10:10;101841.3;;;21.3;66.7
72124;BME280;63818;37.134;-8.548;2022-10-13T04:14:56;101841.9;;;21.2;67.1
72124;BME280;63818;37.134;-8.548;2022-10-13T04:19:44;101849.5;;;21.2;67.0
72124;BME280;63818;37.134;-8.548;2022-10-13T04:24:30;101852.7;;;21.2;67.2
72124;BME280;63818;37.134;-8.548;2022-10-13T04:29:21;101858.2;;;21.2;67.0
72124;BME280;63818;37.134;-8.548;2022-10-13T04:34:07;101865.0;;;21.1;67.4
72124;BME280;63818;37.134;-8.548;2022-10-13T04:38:53;101871.3;;;21.2;67.4
72124;BME280;63818;37.134;-8.548;2022-10-13T04:43:40;101874.8;;;21.2;68.1
72124;BME280;63818;37.134;-8.548;2022-10-13T04:48:28;101891.9;;;21.1;68.3
72124;BME280;63818;37.134;-8.548;2022-10-13T04:53:14;101901.6;;;21.1;68.3
72124;BME280;63818;37.134;-8.548;2022-10-13T04:58:00;101897.7;;;21.1;68.3
72124;BME280;63818;37.134;-8.548;2022-10-13T05:02:46;101904.0;;;21.0;68.5
72124;BME280;63818;37.134;-8.548;2022-10-13T05:07:32;101908.9;;;21.1;68.4
72124;BME280;63818;37.134;-8.548;2022-10-13T05:12:17;101908.7;;;21.0;68.4
72124;BME280;63818;37.134;-8.548;2022-10-13T05:17:08;101923.1;;;21.1;67.6
72124;BME280;63818;37.134;-8.548;2022-10-13T05:21:54;101925.5;;;21.1;67.3
72124;BME280;63818;37.134;-8.548;2022-10-13T05:26:40;101928.0;;;21.1;67.1
72124;BME280;63818;37.134;-8.548;2022-10-13T05:31:27;101937.0;;;21.1;67.2
72124;BME280;63818;37.134;-8.548;2022-10-13T05:36:15;101939.1;;;21.0;67.2
72124;BME280;63818;37.134;-8.548;2022-10-13T05:41:07;101932.3;;;20.9;67.6
72124;BME280;63818;37.134;-8.548;2022-10-13T05:45:53;101929.1;;;20.9;67.5
72124;BME280;63818;37.134;-8.548;2022-10-13T05:50:45;101935.6;;;20.9;67.6
72124;BME280;63818;37.134;-8.548;2022-10-13T05:55:31;101943.4;;;20.7;68.0
72124;BME280;63818;37.134;-8.548;2022-10-13T06:00:19;101938.3;;;20.7;68.1
72124;BME280;63818;37.134;-8.548;2022-10-13T06:05:10;101943.5;;;20.8;68.0
72124;BME280;63818;37.134;-8.548;2022-10-13T06:10:05;101953.4;;;20.8;67.8
72124;BME280;63818;37.134;-8.548;2022-10-13T06:14:51;101952.5;;;20.8;67.7
72124;BME280;63818;37.134;-8.548;2022-10-13T06:19:37;101961.9;;;20.6;68.3
72124;BME280;63818;37.134;-8.548;2022-10-13T06:24:24;101962.9;;;20.7;68.2
72124;BME280;63818;37.134;-8.548;2022-10-13T06:29:12;101964.8;;;20.7;68.5
72124;BME280;63818;37.134;-8.548;2022-10-13T06:34:00;101967.6;;;20.6;69.7
72124;BME280;63818;37.134;-8.548;2022-10-13T06:38:46;101961.8;;;20.6;69.9
72124;BME280;63818;37.134;-8.548;2022-10-13T06:43:34;101968.4;;;20.5;70.9
72124;BME280;63818;37.134;-8.548;2022-10-13T06:48:20;101974.5;;;20.5;70.7
72124;BME280;63818;37.134;-8.548;2022-10-13T06:53:05;101973.8;;;20.7;70.3
72124;BME280;63818;37.134;-8.548;2022-10-13T06:57:53;101984.2;;;20.6;70.2
72124;BME280;63818;37.134;-8.548;2022-10-13T07:02:39;101986.1;;;20.8;69.9
72124;BME280;63818;37.134;-8.548;2022-10-13T07:07:30;101990.2;;;20.8;69.9
72124;BME280;63818;37.134;-8.548;2022-10-13T07:12:16;101999.4;;;20.8;70.1
72124;BME280;63818;37.134;-8.548;2022-10-13T07:17:05;102001.2;;;20.9;69.8
72124;BME280;63818;37.134;-8.548;2022-10-13T07:21:51;102006.3;;;20.9;70.1
72124;BME280;63818;37.134;-8.548;2022-10-13T07:26:37;102012.5;;;20.7;70.5
72124;BME280;63818;37.134;-8.548;2022-10-13T07:31:24;102025.8;;;20.9;70.4
72124;BME280;63818;37.134;-8.548;2022-10-13T07:36:13;102032.3;;;20.9;69.9
72124;BME280;63818;37.134;-8.548;2022-10-13T07:41:04;102031.9;;;21.0;69.5
72124;BME280;63818;37.134;-8.548;2022-10-13T07:45:52;102033.0;;;20.9;69.5
72124;BME280;63818;37.134;-8.548;2022-10-13T07:50:37;102022.6;;;21.0;69.3
72124;BME280;63818;37.134;-8.548;2022-10-13T07:55:23;102031.6;;;21.0;69.3
72124;BME280;63818;37.134;-8.548;2022-10-13T08:00:10;102040.3;;;21.0;69.5
72124;BME280;63818;37.134;-8.548;2022-10-13T08:04:56;102042.0;;;21.1;69.0
72124;BME280;63818;37.134;-8.548;2022-10-13T08:09:42;102046.8;;;21.1;68.8
72124;BME280;63818;37.134;-8.548;2022-10-13T08:14:29;102052.6;;;21.1;68.3
72124;BME280;63818;37.134;-8.548;2022-10-13T08:19:17;102058.6;;;21.1;68.3
72124;BME280;63818;37.134;-8.548;2022-10-13T08:24:04;102054.2;;;21.2;68.3
72124;BME280;63818;37.134;-8.548;2022-10-13T08:28:50;102051.0;;;21.2;68.7
72124;BME280;63818;37.134;-8.548;2022-10-13T08:33:37;102066.0;;;21.2;68.6
72124;BME280;63818;37.134;-8.548;2022-10-13T08:38:24;102075.9;;;21.3;68.6
72124;BME280;63818;37.134;-8.548;2022-10-13T08:43:15;102077.2;;;21.3;68.6
72124;BME280;63818;37.134;-8.548;2022-10-13T08:48:03;102084.0;;;21.4;69.1
72124;BME280;63818;37.134;-8.548;2022-10-13T08:52:52;102094.7;;;21.4;69.1
72124;BME280;63818;37.134;-8.548;2022-10-13T08:57:38;102094.8;;;21.5;69.4
72124;BME280;63818;37.134;-8.548;2022-10-13T09:02:29;102088.6;;;21.5;69.3
72124;BME280;63818;37.134;-8.548;2022-10-13T09:07:18;102095.0;;;21.5;69.9
72124;BME280;63818;37.134;-8.548;2022-10-13T09:12:06;102085.6;;;21.5;69.6
72124;BME280;63818;37.134;-8.548;2022-10-13T09:16:53;102080.3;;;21.6;69.9
72124;BME280;63818;37.134;-8.548;2022-10-13T09:21:41;102091.3;;;21.6;69.9
72124;BME280;63818;37.134;-8.548;2022-10-13T09:26:27;102092.2;;;21.7;70.0
72124;BME280;63818;37.134;-8.548;2022-10-13T09:31:17;102093.8;;;21.7;70.2
72124;BME280;63818;37.134;-8.548;2022-10-13T09:36:08;102098.5;;;21.7;69.1
72124;BME280;63818;37.134;-8.548;2022-10-13T09:41:02;102091.5;;;21.7;68.5
72124;BME280;63818;37.134;-8.548;2022-10-13T09:45:49;102088.9;;;21.7;68.3
72124;BME280;63818;37.134;-8.548;2022-10-13T09:50:35;102091.3;;;21.7;68.4
72124;BME280;63818;37.134;-8.548;2022-10-13T09:55:29;102090.6;;;21.8;68.3
72124;BME280;63818;37.134;-8.548;2022-10-13T10:00:18;102092.2;;;21.8;67.8
72124;BME280;63818;37.134;-8.548;2022-10-13T10:05:20;102083.0;;;21.9;67.6
72124;BME280;63818;37.134;-8.548;2022-10-13T10:10:15;102074.1;;;21.9;67.6
72124;BME280;63818;37.134;-8.548;2022-10-13T10:15:13;102072.7;;;22.0;66.8
72124;BME280;63818;37.134;-8.548;2022-10-13T10:20:05;102062.6;;;22.0;66.4
72124;BME280;63818;37.134;-8.548;2022-10-13T10:29:51;102072.3;;;22.1;65.8
72124;BME280;63818;37.134;-8.548;2022-10-13T10:34:50;102071.3;;;22.2;65.8
72124;BME280;63818;37.134;-8.548;2022-10-13T10:39:43;102069.7;;;22.2;65.4
72124;BME280;63818;37.134;-8.548;2022-10-13T10:44:33;102073.7;;;22.2;65.2
72124;BME280;63818;37.134;-8.548;2022-10-13T10:49:24;102070.2;;;22.2;64.3
72124;BME280;63818;37.134;-8.548;2022-10-13T10:54:23;102080.0;;;22.2;64.4
72124;BME280;63818;37.134;-8.548;2022-10-13T10:59:19;102078.9;;;22.2;63.8
72124;BME280;63818;37.134;-8.548;2022-10-13T11:05:09;102073.0;;;22.2;64.0
72124;BME280;63818;37.134;-8.548;2022-10-13T11:10:18;102073.1;;;22.3;63.0
72124;BME280;63818;37.134;-8.548;2022-10-13T11:15:08;102083.3;;;22.3;62.6
72124;BME280;63818;37.134;-8.548;2022-10-13T11:19:55;102078.5;;;22.4;62.1
72124;BME280;63818;37.134;-8.548;2022-10-13T11:24:50;102072.6;;;22.4;62.0
72124;BME280;63818;37.134;-8.548;2022-10-13T11:29:57;102080.9;;;22.4;62.5
72124;BME280;63818;37.134;-8.548;2022-10-13T11:35:00;102083.3;;;22.4;61.8
72124;BME280;63818;37.134;-8.548;2022-10-13T11:40:15;102083.4;;;22.5;61.7
72124;BME280;63818;37.134;-8.548;2022-10-13T11:45:13;102080.8;;;22.5;62.1
72124;BME280;63818;37.134;-8.548;2022-10-13T11:50:06;102091.9;;;22.6;61.5
72124;BME280;63818;37.134;-8.548;2022-10-13T11:55:01;102080.9;;;22.6;61.4
72124;BME280;63818;37.134;-8.548;2022-10-13T11:59:53;102088.2;;;22.5;61.2
72124;BME280;63818;37.134;-8.548;2022-10-13T12:04:40;102078.5;;;22.6;61.7
72124;BME280;63818;37.134;-8.548;2022-10-13T12:09:31;102083.7;;;22.6;61.7
72124;BME280;63818;37.134;-8.548;2022-10-13T12:14:23;102070.8;;;22.6;61.0
72124;BME280;63818;37.134;-8.548;2022-10-13T12:19:19;102073.3;;;22.7;61.1
72124;BME280;63818;37.134;-8.548;2022-10-13T12:24:10;102060.4;;;22.7;61.0
72124;BME280;63818;37.134;-8.548;2022-10-13T12:29:00;102053.8;;;22.7;61.0
72124;BME280;63818;37.134;-8.548;2022-10-13T12:38:49;102032.5;;;22.8;60.7
72124;BME280;63818;37.134;-8.548;2022-10-13T12:43:35;102021.9;;;22.8;60.3
72124;BME280;63818;37.134;-8.548;2022-10-13T12:48:31;102019.7;;;22.9;59.8
72124;BME280;63818;37.134;-8.548;2022-10-13T12:53:22;102015.2;;;23.0;59.5
72124;BME280;63818;37.134;-8.548;2022-10-13T12:58:18;102004.7;;;23.0;59.3
72124;BME280;63818;37.134;-8.548;2022-10-13T13:03:05;101991.6;;;23.1;59.0
72124;BME280;63818;37.134;-8.548;2022-10-13T13:07:53;101978.3;;;23.1;57.9
72124;BME280;63818;37.134;-8.548;2022-10-13T13:13:27;101981.1;;;23.1;58.4
72124;BME280;63818;37.134;-8.548;2022-10-13T13:18:32;101970.4;;;23.2;57.2
72124;BME280;63818;37.134;-8.548;2022-10-13T13:23:19;101955.7;;;23.4;56.9
72124;BME280;63818;37.134;-8.548;2022-10-13T13:28:09;101950.1;;;23.5;55.8
72124;BME280;63818;37.134;-8.548;2022-10-13T13:32:56;101940.9;;;23.6;55.1
72124;BME280;63818;37.134;-8.548;2022-10-13T13:37:44;101937.2;;;23.7;55.7
72124;BME280;63818;37.134;-8.548;2022-10-13T13:42:31;101925.5;;;23.8;56.2
72124;BME280;63818;37.134;-8.548;2022-10-13T13:47:21;101936.0;;;23.8;56.4
72124;BME280;63818;37.134;-8.548;2022-10-13T13:52:07;101914.4;;;23.7;56.8
72124;BME280;63818;37.134;-8.548;2022-10-13T13:56:53;101909.5;;;23.8;54.9
72124;BME280;63818;37.134;-8.548;2022-10-13T14:01:38;101909.1;;;24.1;55.0
72124;BME280;63818;37.134;-8.548;2022-10-13T14:06:25;101894.2;;;24.4;54.5
72124;BME280;63818;37.134;-8.548;2022-10-13T14:11:11;101892.4;;;24.5;55.1
72124;BME280;63818;37.134;-8.548;2022-10-13T14:15:58;101879.9;;;24.6;55.8
72124;BME280;63818;37.134;-8.548;2022-10-13T14:20:45;101879.4;;;24.8;53.7
72124;BME280;63818;37.134;-8.548;2022-10-13T14:25:31;101871.7;;;25.3;51.8
72124;BME280;63818;37.134;-8.548;2022-10-13T14:30:20;101865.5;;;25.9;50.1
72124;BME280;63818;37.134;-8.548;2022-10-13T14:35:06;101858.1;;;29.0;44.2
72124;BME280;63818;37.134;-8.548;2022-10-13T14:39:53;101868.2;;;31.3;38.5
72124;BME280;63818;37.134;-8.548;2022-10-13T14:44:39;101866.7;;;32.2;37.6
72124;BME280;63818;37.134;-8.548;2022-10-13T14:49:27;101865.0;;;32.8;36.3
72124;BME280;63818;37.134;-8.548;2022-10-13T14:54:13;101872.7;;;33.7;34.3
72124;BME280;63818;37.134;-8.548;2022-10-13T14:59:02;101859.4;;;33.3;34.6
72124;BME280;63818;37.134;-8.548;2022-10-13T15:03:50;101874.4;;;33.0;35.6
72124;BME280;63818;37.134;-8.548;2022-10-13T15:08:36;101858.1;;;33.0;35.5
72124;BME280;63818;37.134;-8.548;2022-10-13T15:13:23;101861.5;;;33.1;36.1
72124;BME280;63818;37.134;-8.548;2022-10-13T15:18:08;101853.9;;;32.5;38.0
72124;BME280;63818;37.134;-8.548;2022-10-13T15:22:54;101857.5;;;32.5;38.9
72124;BME280;63818;37.134;-8.548;2022-10-13T15:27:42;101845.1;;;32.6;39.1
72124;BME280;63818;37.134;-8.548;2022-10-13T15:32:28;101847.7;;;32.7;38.9
72124;BME280;63818;37.134;-8.548;2022-10-13T15:37:16;101850.1;;;32.7;37.7
72124;BME280;63818;37.134;-8.548;2022-10-13T15:42:03;101838.3;;;32.6;37.2
72124;BME280;63818;37.134;-8.548;2022-10-13T15:46:49;101833.0;;;32.5;35.2
72124;BME280;63818;37.134;-8.548;2022-10-13T15:51:35;101826.1;;;32.0;37.2
72124;BME280;63818;37.134;-8.548;2022-10-13T15:56:21;101831.2;;;31.1;38.6
72124;BME280;63818;37.134;-8.548;2022-10-13T16:01:11;101841.3;;;30.4;40.9
72124;BME280;63818;37.134;-8.548;2022-10-13T16:05:56;101840.7;;;29.9;42.6
72124;BME280;63818;37.134;-8.548;2022-10-13T16:10:42;101838.4;;;29.8;43.0
72124;BME280;63818;37.134;-8.548;2022-10-13T16:15:27;101832.6;;;29.3;44.5
72124;BME280;63818;37.134;-8.548;2022-10-13T16:20:13;101842.4;;;28.9;46.2
72124;BME280;63818;37.134;-8.548;2022-10-13T16:24:59;101837.0;;;28.6;47.9
72124;BME280;63818;37.134;-8.548;2022-10-13T16:29:45;101842.2;;;28.3;49.0
72124;BME280;63818;37.134;-8.548;2022-10-13T16:34:31;101845.5;;;28.1;49.6
72124;BME280;63818;37.134;-8.548;2022-10-13T16:39:17;101849.5;;;27.9;50.9
72124;BME280;63818;37.134;-8.548;2022-10-13T16:44:03;101852.7;;;27.7;51.1
72124;BME280;63818;37.134;-8.548;2022-10-13T16:48:52;101857.4;;;27.6;51.2
72124;BME280;63818;37.134;-8.548;2022-10-13T16:53:38;101866.8;;;27.5;50.9
72124;BME280;63818;37.134;-8.548;2022-10-13T16:58:24;101865.7;;;27.4;50.8
72124;BME280;63818;37.134;-8.548;2022-10-13T17:03:10;101870.0;;;27.2;51.5
72124;BME280;63818;37.134;-8.548;2022-10-13T17:07:56;101866.0;;;27.0;52.1
72124;BME280;63818;37.134;-8.548;2022-10-13T17:12:42;101862.5;;;26.9;52.2
72124;BME280;63818;37.134;-8.548;2022-10-13T17:17:28;101865.1;;;26.8;51.7
72124;BME280;63818;37.134;-8.548;2022-10-13T17:22:16;101867.9;;;26.6;51.7
72124;BME280;63818;37.134;-8.548;2022-10-13T17:27:02;101873.0;;;26.6;52.7
72124;BME280;63818;37.134;-8.548;2022-10-13T17:31:48;101878.5;;;26.5;54.4
72124;BME280;63818;37.134;-8.548;2022-10-13T17:36:34;101888.6;;;26.3;55.0
72124;BME280;63818;37.134;-8.548;2022-10-13T17:41:21;101895.6;;;26.2;55.0
72124;BME280;63818;37.134;-8.548;2022-10-13T17:46:09;101893.1;;;26.0;55.7
72124;BME280;63818;37.134;-8.548;2022-10-13T17:50:59;101899.8;;;25.9;55.8
72124;BME280;63818;37.134;-8.548;2022-10-13T17:55:45;101904.8;;;25.8;56.9
72124;BME280;63818;37.134;-8.548;2022-10-13T18:00:35;101904.8;;;25.7;57.2
72124;BME280;63818;37.134;-8.548;2022-10-13T18:05:21;101913.0;;;25.7;57.6
72124;BME280;63818;37.134;-8.548;2022-10-13T18:10:10;101924.7;;;25.6;57.5
72124;BME280;63818;37.134;-8.548;2022-10-13T18:14:59;101923.4;;;25.5;57.2
72124;BME280;63818;37.134;-8.548;2022-10-13T18:19:52;101932.8;;;25.5;56.9
72124;BME280;63818;37.134;-8.548;2022-10-13T18:24:38;101932.0;;;25.4;55.9
72124;BME280;63818;37.134;-8.548;2022-10-13T18:29:24;101933.5;;;25.4;56.1
72124;BME280;63818;37.134;-8.548;2022-10-13T18:34:12;101940.9;;;25.4;56.3
72124;BME280;63818;37.134;-8.548;2022-10-13T18:39:03;101935.4;;;25.3;56.3
72124;BME280;63818;37.134;-8.548;2022-10-13T18:43:49;101949.5;;;25.2;56.8
72124;BME280;63818;37.134;-8.548;2022-10-13T18:48:35;101947.8;;;25.1;57.1
72124;BME280;63818;37.134;-8.548;2022-10-13T18:53:29;101951.0;;;25.1;57.4
72124;BME280;63818;37.134;-8.548;2022-10-13T18:58:20;101958.4;;;25.1;58.2
72124;BME280;63818;37.134;-8.548;2022-10-13T19:03:05;101966.6;;;25.1;58.1
72124;BME280;63818;37.134;-8.548;2022-10-13T19:07:51;101966.1;;;25.0;58.1
72124;BME280;63818;37.134;-8.548;2022-10-13T19:12:37;101961.4;;;25.0;58.4
72124;BME280;63818;37.134;-8.548;2022-10-13T19:17:23;101977.1;;;25.0;58.7
72124;BME280;63818;37.134;-8.548;2022-10-13T19:22:09;101972.0;;;25.0;58.8
72124;BME280;63818;37.134;-8.548;2022-10-13T19:26:54;101979.0;;;24.9;59.1
72124;BME280;63818;37.134;-8.548;2022-10-13T19:31:41;101981.6;;;24.9;59.5
72124;BME280;63818;37.134;-8.548;2022-10-13T19:36:30;101985.9;;;24.8;59.6
72124;BME280;63818;37.134;-8.548;2022-10-13T19:41:17;101990.2;;;24.8;59.8
72124;BME280;63818;37.134;-8.548;2022-10-13T19:46:05;101991.3;;;24.8;60.0
72124;BME280;63818;37.134;-8.548;2022-10-13T19:50:51;101999.1;;;24.7;60.4
72124;BME280;63818;37.134;-8.548;2022-10-13T19:55:42;101998.6;;;24.6;59.9
72124;BME280;63818;37.134;-8.548;2022-10-13T20:00:28;101999.0;;;24.6;59.8
72124;BME280;63818;37.134;-8.548;2022-10-13T20:05:14;102003.2;;;24.6;60.0
72124;BME280;63818;37.134;-8.548;2022-10-13T20:10:00;102000.1;;;24.6;59.8
72124;BME280;63818;37.134;-8.548;2022-10-13T20:14:46;101999.3;;;24.6;59.9
72124;BME280;63818;37.134;-8.548;2022-10-13T20:19:36;102003.7;;;24.6;59.7
72124;BME280;63818;37.134;-8.548;2022-10-13T20:29:15;102015.8;;;24.5;60.3
72124;BME280;63818;37.134;-8.548;2022-10-13T20:34:04;102022.8;;;24.5;60.5
72124;BME280;63818;37.134;-8.548;2022-10-13T20:38:50;102021.6;;;24.5;60.9
72124;BME280;63818;37.134;-8.548;2022-10-13T20:43:35;102020.8;;;24.5;60.5
72124;BME280;63818;37.134;-8.548;2022-10-13T20:48:21;102025.0;;;24.4;60.4
72124;BME280;63818;37.134;-8.548;2022-10-13T20:53:07;102019.0;;;24.4;60.9
72124;BME280;63818;37.134;-8.548;2022-10-13T20:57:56;102029.2;;;24.3;61.0
72124;BME280;63818;37.134;-8.548;2022-10-13T21:02:44;102029.5;;;24.3;61.3
72124;BME280;63818;37.134;-8.548;2022-10-13T21:07:30;102028.3;;;24.3;61.2
72124;BME280;63818;37.134;-8.548;2022-10-13T21:12:15;102031.3;;;24.2;61.3
72124;BME280;63818;37.134;-8.548;2022-10-13T21:17:01;102031.1;;;24.1;61.8
72124;BME280;63818;37.134;-8.548;2022-10-13T21:21:53;102035.5;;;24.1;62.1
72124;BME280;63818;37.134;-8.548;2022-10-13T21:26:39;102036.6;;;24.1;61.6
72124;BME280;63818;37.134;-8.548;2022-10-13T21:31:27;102045.5;;;24.0;61.8
72124;BME280;63818;37.134;-8.548;2022-10-13T21:36:16;102052.5;;;24.0;62.0
72124;BME280;63818;37.134;-8.548;2022-10-13T21:41:04;102048.1;;;23.9;62.3
72124;BME280;63818;37.134;-8.548;2022-10-13T21:45:54;102056.6;;;23.8;62.8
72124;BME280;63818;37.134;-8.548;2022-10-13T21:50:40;102059.8;;;23.9;63.4
72124;BME280;63818;37.134;-8.548;2022-10-13T21:55:28;102054.9;;;23.8;63.6
72124;BME280;63818;37.134;-8.548;2022-10-13T22:00:17;102051.1;;;23.8;63.2
72124;BME280;63818;37.134;-8.548;2022-10-13T22:05:06;102058.4;;;23.8;63.2
72124;BME280;63818;37.134;-8.548;2022-10-13T22:09:52;102056.9;;;23.8;62.7
72124;BME280;63818;37.134;-8.548;2022-10-13T22:14:38;102079.9;;;23.8;62.3
72124;BME280;63818;37.134;-8.548;2022-10-13T22:19:24;102067.5;;;23.6;62.5
72124;BME280;63818;37.134;-8.548;2022-10-13T22:24:12;102068.0;;;23.6;62.1
72124;BME280;63818;37.134;-8.548;2022-10-13T22:29:00;102070.8;;;23.5;62.5
72124;BME280;63818;37.134;-8.548;2022-10-13T22:33:49;102058.1;;;23.4;62.5
72124;BME280;63818;37.134;-8.548;2022-10-13T22:38:35;102065.5;;;23.4;62.2
72124;BME280;63818;37.134;-8.548;2022-10-13T22:43:22;102058.9;;;23.4;62.2
72124;BME280;63818;37.134;-8.548;2022-10-13T22:48:15;102056.3;;;23.5;62.2
72124;BME280;63818;37.134;-8.548;2022-10-13T22:53:02;102057.9;;;23.5;61.3
72124;BME280;63818;37.134;-8.548;2022-10-13T22:57:47;102061.9;;;23.4;62.1
72124;BME280;63818;37.134;-8.548;2022-10-13T23:02:36;102058.9;;;23.0;62.3
72124;BME280;63818;37.134;-8.548;2022-10-13T23:07:22;102046.6;;;23.2;62.9
72124;BME280;63818;37.134;-8.548;2022-10-13T23:12:10;102056.4;;;23.0;64.2
72124;BME280;63818;37.134;-8.548;2022-10-13T23:16:56;102054.8;;;23.0;63.9
72124;BME280;63818;37.134;-8.548;2022-10-13T23:21:42;102038.4;;;23.1;63.7
72124;BME280;63818;37.134;-8.548;2022-10-13T23:26:30;102042.3;;;23.0;64.6
72124;BME280;63818;37.134;-8.548;2022-10-13T23:31:17;102036.4;;;23.1;63.5
72124;BME280;63818;37.134;-8.548;2022-10-13T23:36:04;98415.3;;;-1.0;62.9
72124;BME280;63818;37.134;-8.548;2022-10-13T23:41:02;102029.7;;;23.1;64.4
72124;BME280;63818;37.134;-8.548;2022-10-13T23:45:49;102030.8;;;23.1;65.0
72124;BME280;63818;37.134;-8.548;2022-10-13T23:50:35;102023.1;;;23.0;65.7
72124;BME280;63818;37.134;-8.548;2022-10-13T23:55:21;102016.2;;;22.9;66.2
